Time;durP1;ratioP1;P1;durP2;ratioP2;P2;SDS_P1;SDS_P2;PMS_P1;PMS_P2;Temp;Humidity;BMP_temperature;BMP_pressure;BME280_temperature;BME280_humidity;BME280_pressure;Samples;Min_cycle;Max_cycle;Signal;HPM_P1;HPM_P2
2023/07/28 00:00:27;;;;;;;0.60;0.40;;;;;;;15.54;100.00;98699.59;104781;1262;70956;-47
2023/07/28 00:02:54;;;;;;;2.10;0.30;;;;;;;15.52;100.00;98695.77;104864;1261;67520;-46
2023/07/28 00:05:22;;;;;;;2.20;0.30;;;;;;;15.53;100.00;98693.19;104941;1256;71448;-47
2023/07/28 00:07:49;;;;;;;0.30;0.30;;;;;;;15.51;100.00;98694.39;104814;1257;60462;-47
2023/07/28 00:10:17;;;;;;;1.80;0.30;;;;;;;15.50;100.00;98693.58;104872;1254;59607;-47
2023/07/28 00:12:44;;;;;;;0.70;0.30;;;;;;;15.46;100.00;98687.38;104689;1254;73082;-47
2023/07/28 00:15:11;;;;;;;0.80;0.30;;;;;;;15.43;100.00;98683.14;104874;1259;68341;-46
2023/07/28 00:17:39;;;;;;;0.60;0.40;;;;;;;15.41;100.00;98678.61;104736;1259;71409;-46
2023/07/28 00:20:07;;;;;;;1.20;0.30;;;;;;;15.38;100.00;98673.09;104815;1260;63394;-47
2023/07/28 00:22:35;;;;;;;3.60;0.30;;;;;;;15.36;100.00;98674.38;104892;1261;60495;-46
2023/07/28 00:25:02;;;;;;;1.50;0.30;;;;;;;15.34;100.00;98672.50;104821;1259;73599;-46
2023/07/28 00:27:30;;;;;;;0.50;0.30;;;;;;;15.35;100.00;98673.00;104590;1261;65823;-47
2023/07/28 00:29:57;;;;;;;2.30;0.40;;;;;;;15.36;100.00;98670.77;104873;1257;70974;-46
2023/07/28 00:32:24;;;;;;;0.50;0.30;;;;;;;15.35;100.00;98665.42;104703;1259;60463;-46
2023/07/28 00:34:52;;;;;;;1.20;0.20;;;;;;;15.36;100.00;98671.81;105137;1260;60869;-44
2023/07/28 00:37:19;;;;;;;0.80;0.30;;;;;;;15.36;100.00;98675.14;104633;1256;73058;-44
2023/07/28 00:39:46;;;;;;;1.60;0.30;;;;;;;15.35;100.00;98672.62;104853;1255;67899;-44
2023/07/28 00:42:14;;;;;;;2.30;0.30;;;;;;;15.35;100.00;98671.20;104738;1261;71450;-46
2023/07/28 00:44:41;;;;;;;1.10;0.20;;;;;;;15.34;100.00;98672.17;104942;1256;60527;-44
2023/07/28 00:47:08;;;;;;;3.60;0.20;;;;;;;15.33;100.00;98669.91;104908;1256;60419;-46
2023/07/28 00:49:36;;;;;;;0.60;0.30;;;;;;;15.31;100.00;98666.34;104976;1262;72011;-44
2023/07/28 00:52:04;;;;;;;0.90;0.20;;;;;;;15.30;100.00;98669.63;105382;1256;68117;-44
2023/07/28 00:54:31;;;;;;;1.90;0.20;;;;;;;15.30;100.00;98666.96;104665;1262;71109;-46
2023/07/28 00:56:58;;;;;;;2.60;0.30;;;;;;;15.29;100.00;98671.16;104659;1254;61621;-46
2023/07/28 00:59:26;;;;;;;4.50;0.30;;;;;;;15.31;100.00;98673.13;104792;1257;60045;-46
2023/07/28 01:01:53;;;;;;;0.80;0.30;;;;;;;15.32;100.00;98673.46;104862;1257;73660;-45
2023/07/28 01:04:21;;;;;;;0.80;0.30;;;;;;;15.32;100.00;98680.33;104696;1257;70197;-48
2023/07/28 01:07:04;;;;;;;0.50;0.30;;;;;;;15.31;100.00;98676.38;104646;1256;73255;-45
2023/07/28 01:09:37;;;;;;;0.90;0.30;;;;;;;15.32;100.00;98679.20;104702;1257;59648;-46
2023/07/28 01:12:07;;;;;;;0.80;0.30;;;;;;;15.31;100.00;98676.41;104538;1262;60662;-46
2023/07/28 01:14:34;;;;;;;2.70;0.30;;;;;;;15.30;100.00;98675.42;105941;1262;73477;-43
2023/07/28 01:17:01;;;;;;;1.10;0.30;;;;;;;15.30;100.00;98674.53;104560;1262;68261;-45
2023/07/28 01:19:29;;;;;;;0.90;0.30;;;;;;;15.29;100.00;98673.50;104681;1257;74589;-46
2023/07/28 01:22:25;;;;;;;0.30;0.20;;;;;;;15.30;100.00;98680.10;104611;1257;62451;-47
2023/07/28 01:24:59;;;;;;;2.70;0.30;;;;;;;15.30;100.00;98688.98;104783;1257;60035;-44
2023/07/28 01:27:27;;;;;;;0.80;0.30;;;;;;;15.29;100.00;98693.05;105333;1262;73159;-45
2023/07/28 01:29:54;;;;;;;1.10;0.30;;;;;;;15.29;100.00;98692.35;104688;1257;70196;-48
2023/07/28 01:32:21;;;;;;;0.60;0.20;;;;;;;15.28;100.00;98694.59;104623;1262;72491;-46
2023/07/28 01:34:49;;;;;;;1.30;0.20;;;;;;;15.27;100.00;98697.70;104699;1257;61641;-45
2023/07/28 01:37:16;;;;;;;1.00;0.30;;;;;;;15.27;100.00;98699.71;104807;1256;60026;-46
2023/07/28 01:39:43;;;;;;;1.20;0.30;;;;;;;15.27;100.00;98702.63;104653;1257;72995;-46
2023/07/28 01:42:11;;;;;;;1.10;0.30;;;;;;;15.26;100.00;98703.22;104796;1257;68701;-44
2023/07/28 01:44:38;;;;;;;3.10;0.20;;;;;;;15.25;100.00;98708.35;104835;1257;71449;-45
2023/07/28 01:47:05;;;;;;;0.30;0.30;;;;;;;15.24;100.00;98714.19;104620;1256;59902;-46
2023/07/28 01:49:33;;;;;;;2.10;0.20;;;;;;;15.25;100.00;98714.35;104778;1257;59693;-46
2023/07/28 01:52:00;;;;;;;1.00;0.30;;;;;;;15.26;100.00;98721.86;104661;1257;72080;-46
2023/07/28 01:54:27;;;;;;;1.70;0.20;;;;;;;15.25;100.00;98722.13;104875;1256;67753;-46
2023/07/28 01:56:55;;;;;;;2.40;0.30;;;;;;;15.23;100.00;98721.70;104956;1260;72334;-46
2023/07/28 01:59:22;;;;;;;1.00;0.30;;;;;;;15.24;100.00;98718.59;104680;1257;61175;-45
2023/07/28 02:01:50;;;;;;;0.70;0.30;;;;;;;15.25;100.00;98724.66;104842;1256;60101;-47
2023/07/28 02:04:17;;;;;;;0.40;0.30;;;;;;;15.26;100.00;98726.77;104800;1255;72371;-46
2023/07/28 02:06:45;;;;;;;0.30;0.20;;;;;;;15.26;100.00;98730.17;105815;1257;67838;-47
2023/07/28 02:09:12;;;;;;;0.30;0.20;;;;;;;15.26;100.00;98729.41;104726;1262;72424;-47
2023/07/28 02:11:40;;;;;;;0.40;0.20;;;;;;;15.27;100.00;98731.17;104711;1257;62194;-46
2023/07/28 02:14:07;;;;;;;3.60;0.30;;;;;;;15.25;100.00;98736.91;104751;1256;59641;-48
2023/07/28 02:16:34;;;;;;;0.40;0.30;;;;;;;15.24;100.00;98735.38;104806;1260;72984;-47
2023/07/28 02:19:02;;;;;;;1.60;0.20;;;;;;;15.26;100.00;98739.59;105144;1257;67841;-47
2023/07/28 02:21:30;;;;;;;4.80;0.30;;;;;;;15.26;100.00;98740.28;104776;1259;71426;-47
2023/07/28 02:23:58;;;;;;;1.90;0.20;;;;;;;15.25;100.00;98744.70;108716;1256;60402;-47
2023/07/28 02:26:25;;;;;;;0.30;0.20;;;;;;;15.24;100.00;98748.20;108929;1257;58719;-47
2023/07/28 02:28:52;;;;;;;0.40;0.20;;;;;;;15.25;100.00;98747.25;108975;1256;72019;-48
2023/07/28 02:31:20;;;;;;;2.70;0.30;;;;;;;15.26;100.00;98753.33;108857;1256;66496;-48
2023/07/28 02:33:47;;;;;;;1.10;0.20;;;;;;;15.25;100.00;98753.02;108892;1256;72345;-48
2023/07/28 02:36:14;;;;;;;0.30;0.30;;;;;;;15.25;100.00;98759.91;108853;1255;60352;-48
2023/07/28 02:38:42;;;;;;;1.80;0.20;;;;;;;15.25;100.00;98761.30;108777;1257;60702;-48
2023/07/28 02:41:10;;;;;;;1.50;0.30;;;;;;;15.26;100.00;98763.94;108869;1254;71750;-47
2023/07/28 02:43:37;;;;;;;0.30;0.30;;;;;;;15.27;100.00;98763.52;108877;1257;68149;-48
2023/07/28 02:46:04;;;;;;;2.30;0.30;;;;;;;15.28;100.00;98761.44;108793;1256;71378;-47
2023/07/28 02:48:32;;;;;;;0.40;0.20;;;;;;;15.28;100.00;98766.67;108876;1256;61815;-49
2023/07/28 02:50:59;;;;;;;2.40;0.30;;;;;;;15.28;100.00;98768.31;108830;1257;59994;-48
2023/07/28 02:53:27;;;;;;;1.10;0.30;;;;;;;15.30;100.00;98773.42;108726;1257;72142;-47
2023/07/28 02:55:56;;;;;;;0.90;0.20;;;;;;;15.32;100.00;98779.70;104825;1257;66349;-46
2023/07/28 02:58:23;;;;;;;0.80;0.30;;;;;;;15.34;100.00;98779.03;104646;1263;71436;-47
2023/07/28 03:00:51;;;;;;;2.60;0.30;;;;;;;15.34;100.00;98779.70;104741;1257;62050;-47
2023/07/28 03:03:21;;;;;;;5.70;0.30;;;;;;;15.36;100.00;98787.37;104635;1262;62131;-46
2023/07/28 03:05:51;;;;;;;0.20;0.20;;;;;;;15.34;100.00;98794.53;105401;1261;71759;-47
2023/07/28 03:08:23;;;;;;;2.10;0.20;;;;;;;15.32;100.00;98795.98;104623;1260;66792;-46
2023/07/28 03:10:50;;;;;;;1.90;0.50;;;;;;;15.32;100.00;98801.61;104721;1257;72331;-46
2023/07/28 03:13:17;;;;;;;1.10;0.30;;;;;;;15.31;100.00;98803.60;104659;1256;61709;-47
2023/07/28 03:15:45;;;;;;;1.60;0.20;;;;;;;15.32;100.00;98803.06;104962;1257;59817;-46
2023/07/28 03:18:13;;;;;;;0.50;0.30;;;;;;;15.32;100.00;98806.46;104791;1260;73177;-46
2023/07/28 03:20:40;;;;;;;0.70;0.20;;;;;;;15.31;100.00;98798.55;104996;1256;67653;-47
2023/07/28 03:23:07;;;;;;;0.40;0.30;;;;;;;15.31;100.00;98801.80;104771;1258;72726;-45
2023/07/28 03:25:35;;;;;;;1.00;0.30;;;;;;;15.32;100.00;98804.29;104683;1257;61674;-46
2023/07/28 03:28:02;;;;;;;1.20;0.30;;;;;;;15.33;100.00;98808.39;104717;1262;59731;-47
2023/07/28 03:30:30;;;;;;;0.80;0.20;;;;;;;15.34;100.00;98811.91;104560;1262;73040;-46
2023/07/28 03:32:57;;;;;;;2.60;0.20;;;;;;;15.34;100.00;98809.55;104954;1257;70341;-46
2023/07/28 03:35:24;;;;;;;1.80;0.20;;;;;;;15.33;100.00;98810.38;104665;1257;71471;-47
2023/07/28 03:38:06;;;;;;;0.60;0.50;;;;;;;15.31;100.00;98813.63;104633;1260;60562;-47
2023/07/28 03:40:33;;;;;;;1.80;0.30;;;;;;;15.30;100.00;98815.51;104630;1259;59557;-46
2023/07/28 03:43:01;;;;;;;1.90;0.30;;;;;;;15.29;100.00;98815.41;104688;1256;73561;-47
2023/07/28 03:45:29;;;;;;;3.50;0.30;;;;;;;15.28;100.00;98816.96;104899;1262;66312;-46
2023/07/28 03:47:56;;;;;;;1.20;0.20;;;;;;;15.27;100.00;98821.15;104524;1256;72191;-47
2023/07/28 03:50:26;;;;;;;0.60;0.30;;;;;;;15.25;100.00;98820.77;104742;1262;61996;-46
2023/07/28 03:52:53;;;;;;;1.20;0.40;;;;;;;15.22;100.00;98823.92;105260;1259;60520;-47
2023/07/28 03:55:21;;;;;;;3.10;0.30;;;;;;;15.21;100.00;98826.73;104734;1257;72051;-46
2023/07/28 03:57:48;;;;;;;2.30;0.40;;;;;;;15.18;100.00;98820.30;104730;1257;67569;-46
2023/07/28 04:00:15;;;;;;;0.50;0.30;;;;;;;15.15;100.00;98821.03;104787;1263;73272;-47
2023/07/28 04:02:43;;;;;;;2.20;0.30;;;;;;;15.14;100.00;98820.09;104907;1263;61901;-47
2023/07/28 04:05:10;;;;;;;0.30;0.30;;;;;;;15.15;100.00;98819.41;104628;1257;60575;-47
2023/07/28 04:07:38;;;;;;;1.40;0.30;;;;;;;15.19;100.00;98827.23;104549;1258;73749;-46
2023/07/28 04:10:06;;;;;;;0.60;0.30;;;;;;;15.21;100.00;98828.71;104853;1262;68590;-46
2023/07/28 04:12:33;;;;;;;2.10;0.30;;;;;;;15.21;100.00;98833.59;104795;1262;73569;-45
2023/07/28 04:15:00;;;;;;;0.80;0.20;;;;;;;15.19;100.00;98833.56;104709;1257;62142;-46
2023/07/28 04:17:28;;;;;;;0.70;0.30;;;;;;;15.18;100.00;98835.85;104720;1257;60818;-46
2023/07/28 04:19:55;;;;;;;3.90;0.40;;;;;;;15.19;100.00;98836.84;104731;1255;75459;-47
2023/07/28 04:22:23;;;;;;;1.20;0.30;;;;;;;15.22;100.00;98841.14;104592;1257;67917;-46
2023/07/28 04:24:53;;;;;;;1.00;0.30;;;;;;;15.21;100.00;98834.92;104693;1257;71479;-48
2023/07/28 04:27:21;;;;;;;1.30;0.20;;;;;;;15.18;100.00;98833.34;105060;1257;61617;-46
2023/07/28 04:29:49;;;;;;;1.00;0.20;;;;;;;15.16;100.00;98837.23;105282;1255;60543;-47
2023/07/28 04:32:19;;;;;;;1.00;0.30;;;;;;;15.16;100.00;98835.97;105053;1259;72992;-45
2023/07/28 04:34:47;;;;;;;3.40;0.30;;;;;;;15.17;100.00;98835.70;104397;1259;66701;-48
2023/07/28 04:37:16;;;;;;;0.80;0.30;;;;;;;15.20;100.00;98836.62;104570;1262;71463;-49
2023/07/28 04:39:54;;;;;;;3.00;0.40;;;;;;;15.23;100.00;98832.16;104436;1256;60572;-47
2023/07/28 04:42:21;;;;;;;2.30;0.30;;;;;;;15.23;100.00;98829.48;104989;1263;60322;-46
2023/07/28 04:44:49;;;;;;;1.20;0.30;;;;;;;15.24;100.00;98832.95;105005;1254;73879;-46
2023/07/28 04:47:17;;;;;;;3.40;0.40;;;;;;;15.23;100.00;98832.30;105253;1253;68047;-48
2023/07/28 04:49:44;;;;;;;1.80;0.30;;;;;;;15.24;100.00;98832.65;104878;1254;72471;-47
2023/07/28 04:52:12;;;;;;;7.40;0.30;;;;;;;15.23;100.00;98831.85;104943;1254;60559;-47
2023/07/28 04:54:47;;;;;;;0.30;0.20;;;;;;;15.24;100.00;98834.77;105017;1259;62636;-48
2023/07/28 04:57:14;;;;;;;2.10;0.40;;;;;;;15.28;100.00;98827.44;105069;1253;73848;-47
2023/07/28 04:59:43;;;;;;;5.10;0.60;;;;;;;15.31;100.00;98829.84;105807;1254;68341;-47
2023/07/28 05:02:10;;;;;;;0.90;0.30;;;;;;;15.36;100.00;98834.15;104833;1259;72679;-46
2023/07/28 05:04:38;;;;;;;8.30;0.40;;;;;;;15.43;100.00;98836.13;104909;1254;63181;-46
2023/07/28 05:07:05;;;;;;;1.00;0.20;;;;;;;15.48;100.00;98834.45;105839;1259;60573;-47
2023/07/28 05:09:33;;;;;;;1.60;0.30;;;;;;;15.53;100.00;98834.24;104631;1259;73838;-48
2023/07/28 05:12:00;;;;;;;4.20;0.50;;;;;;;15.60;100.00;98836.19;105315;1256;67953;-47
2023/07/28 05:14:28;;;;;;;2.50;0.30;;;;;;;15.67;100.00;98828.33;106504;1256;73328;-47
2023/07/28 05:16:56;;;;;;;0.50;0.30;;;;;;;15.73;100.00;98835.08;104933;1253;63346;-47
2023/07/28 05:19:50;;;;;;;8.50;0.40;;;;;;;15.79;100.00;98840.34;104902;1252;60473;-47
2023/07/28 05:22:36;;;;;;;0.40;0.30;;;;;;;15.84;100.00;98836.43;105089;1258;73838;-47
2023/07/28 05:25:05;;;;;;;1.00;0.30;;;;;;;15.90;100.00;98838.13;104836;1256;68001;-48
2023/07/28 05:27:32;;;;;;;1.30;0.20;;;;;;;15.96;100.00;98841.43;109170;1253;71794;-48
2023/07/28 05:30:00;;;;;;;2.00;0.20;;;;;;;16.01;100.00;98837.23;108570;1254;60553;-48
2023/07/28 05:32:31;;;;;;;1.40;0.30;;;;;;;16.03;100.00;98843.34;105006;1255;60623;-48
2023/07/28 05:35:22;;;;;;;0.70;0.30;;;;;;;16.07;100.00;98850.83;104890;1257;72798;-48
2023/07/28 05:37:49;;;;;;;1.20;0.30;;;;;;;16.10;100.00;98846.53;104824;1259;66617;-46
2023/07/28 05:40:16;;;;;;;2.00;0.30;;;;;;;16.14;100.00;98851.09;104543;1259;75189;-47
2023/07/28 05:42:44;;;;;;;1.50;0.30;;;;;;;16.18;100.00;98846.73;104814;1259;60917;-47
2023/07/28 05:45:12;;;;;;;0.40;0.20;;;;;;;16.20;100.00;98851.11;104941;1259;60562;-47
2023/07/28 05:47:39;;;;;;;2.00;0.30;;;;;;;16.22;100.00;98859.33;105019;1253;72557;-48
2023/07/28 05:50:07;;;;;;;1.60;0.30;;;;;;;16.22;100.00;98858.21;104760;1254;68014;-46
2023/07/28 05:52:34;;;;;;;3.50;0.30;;;;;;;16.22;100.00;98858.91;109145;1256;71454;-48
2023/07/28 05:55:02;;;;;;;0.70;0.30;;;;;;;16.23;100.00;98859.71;109199;1253;61710;-48
2023/07/28 05:57:29;;;;;;;1.90;0.20;;;;;;;16.30;100.00;98865.51;109171;1253;60299;-47
2023/07/28 05:59:57;;;;;;;3.30;0.30;;;;;;;16.38;100.00;98869.66;107140;1254;73869;-47
2023/07/28 06:02:24;;;;;;;0.40;0.20;;;;;;;16.45;100.00;98874.15;104870;1260;67583;-46
2023/07/28 06:04:54;;;;;;;0.60;0.30;;;;;;;16.51;100.00;98871.61;106442;1257;71713;-47
2023/07/28 06:07:22;;;;;;;0.40;0.20;;;;;;;16.58;100.00;98878.41;104779;1267;60486;-48
2023/07/28 06:09:49;;;;;;;0.80;0.30;;;;;;;16.62;100.00;98882.81;104754;1259;60445;-48
2023/07/28 06:12:16;;;;;;;0.70;0.20;;;;;;;16.64;100.00;98886.84;104959;1259;72939;-47
2023/07/28 06:14:44;;;;;;;0.70;0.30;;;;;;;16.68;100.00;98886.30;104870;1253;66434;-47
2023/07/28 06:17:12;;;;;;;9.80;0.30;;;;;;;16.72;100.00;98887.05;104611;1257;72636;-47
2023/07/28 06:19:39;;;;;;;5.60;0.30;;;;;;;16.76;100.00;98890.37;104771;1259;60466;-46
2023/07/28 06:22:07;;;;;;;0.70;0.30;;;;;;;16.83;100.00;98892.44;105086;1259;60424;-47
2023/07/28 06:24:40;;;;;;;0.50;0.30;;;;;;;16.91;100.00;98891.34;105114;1260;73772;-48
2023/07/28 06:27:09;;;;;;;0.30;0.20;;;;;;;16.97;100.00;98898.02;104752;1253;67728;-47
2023/07/28 06:29:40;;;;;;;3.90;0.60;;;;;;;17.05;100.00;98904.06;108464;1257;72778;-46
2023/07/28 06:32:08;;;;;;;1.70;0.20;;;;;;;17.10;100.00;98904.33;105050;1258;62880;-46
2023/07/28 06:34:35;;;;;;;3.90;0.30;;;;;;;17.16;100.00;98904.95;105076;1257;60595;-48
2023/07/28 06:37:03;;;;;;;2.70;0.30;;;;;;;17.22;100.00;98917.40;104976;1253;73018;-49
2023/07/28 06:39:31;;;;;;;2.20;0.20;;;;;;;17.30;100.00;98927.17;104787;1257;69930;-49
2023/07/28 06:41:59;;;;;;;0.40;0.20;;;;;;;17.37;100.00;98924.91;104930;1259;70992;-49
2023/07/28 06:44:27;;;;;;;0.80;0.30;;;;;;;17.42;100.00;98921.21;104833;1256;61629;-47
2023/07/28 06:46:54;;;;;;;1.50;0.30;;;;;;;17.49;100.00;98923.52;104715;1256;60603;-48
2023/07/28 06:49:22;;;;;;;1.20;0.30;;;;;;;17.57;100.00;98928.80;105126;1257;73120;-48
2023/07/28 06:51:49;;;;;;;1.50;0.20;;;;;;;17.65;100.00;98929.84;104983;1257;67846;-47
2023/07/28 06:54:18;;;;;;;1.00;0.30;;;;;;;17.77;100.00;98940.45;104937;1257;71928;-48
2023/07/28 06:56:45;;;;;;;2.20;0.20;;;;;;;17.87;100.00;98942.00;104861;1259;61108;-48
2023/07/28 06:59:12;;;;;;;0.50;0.30;;;;;;;17.98;100.00;98946.86;105285;1252;60010;-48
2023/07/28 07:01:45;;;;;;;0.80;0.20;;;;;;;18.06;100.00;98956.40;105308;1254;73012;-48
2023/07/28 07:04:12;;;;;;;1.00;0.30;;;;;;;18.11;100.00;98959.36;104913;1260;66301;-47
2023/07/28 07:06:40;;;;;;;1.10;0.20;;;;;;;18.14;100.00;98964.39;106019;1259;72620;-48
2023/07/28 07:09:08;;;;;;;0.40;0.20;;;;;;;18.15;100.00;98967.39;105312;1257;60546;-47
2023/07/28 07:11:35;;;;;;;0.80;0.20;;;;;;;18.15;100.00;98964.90;105148;1257;60483;-48
2023/07/28 07:14:04;;;;;;;0.60;0.20;;;;;;;18.15;100.00;98962.69;105139;1257;72627;-47
2023/07/28 07:16:32;;;;;;;0.50;0.20;;;;;;;18.18;100.00;98959.33;105034;1257;66663;-48
2023/07/28 07:19:00;;;;;;;1.30;0.30;;;;;;;18.23;100.00;98965.27;104980;1253;71268;-49
2023/07/28 07:21:27;;;;;;;0.30;0.20;;;;;;;18.26;100.00;98970.38;104802;1255;60427;-48
2023/07/28 07:23:55;;;;;;;0.40;0.20;;;;;;;18.31;100.00;98968.52;104941;1254;60651;-49
2023/07/28 07:26:25;;;;;;;0.50;0.30;;;;;;;18.36;100.00;98966.25;105028;1255;73866;-48
2023/07/28 07:28:53;;;;;;;0.70;0.20;;;;;;;18.41;100.00;98972.77;104874;1258;66006;-49
2023/07/28 07:31:21;;;;;;;0.80;0.20;;;;;;;18.47;100.00;98975.63;105046;1261;72436;-49
2023/07/28 07:33:48;;;;;;;0.50;0.20;;;;;;;18.53;100.00;98978.25;105144;1254;60473;-50
2023/07/28 07:36:16;;;;;;;0.30;0.30;;;;;;;18.59;100.00;98981.14;104914;1254;60565;-49
2023/07/28 07:38:48;;;;;;;1.70;0.20;;;;;;;18.63;100.00;98986.64;105165;1256;73418;-50
2023/07/28 07:41:19;;;;;;;3.10;0.30;;;;;;;18.67;100.00;98995.10;105102;1257;66792;-51
2023/07/28 07:43:47;;;;;;;0.40;0.20;;;;;;;18.73;100.00;98998.48;105300;1256;72648;-49
2023/07/28 07:46:15;;;;;;;0.30;0.20;;;;;;;18.79;100.00;99002.56;105013;1256;60531;-49
2023/07/28 07:48:43;;;;;;;3.50;0.30;;;;;;;18.85;100.00;99005.60;106104;1254;60435;-48
2023/07/28 07:51:10;;;;;;;0.80;0.20;;;;;;;18.92;100.00;99009.45;106204;1251;73807;-49
2023/07/28 07:53:38;;;;;;;0.30;0.20;;;;;;;18.99;100.00;99009.92;105045;1251;67717;-49
2023/07/28 07:56:06;;;;;;;0.50;0.30;;;;;;;19.05;100.00;99012.63;108679;1254;73094;-48
2023/07/28 07:58:33;;;;;;;0.40;0.20;;;;;;;19.09;100.00;99018.20;104764;1253;60669;-50
2023/07/28 08:01:01;;;;;;;0.30;0.20;;;;;;;19.12;100.00;99020.14;104819;1258;60503;-48
2023/07/28 08:03:28;;;;;;;0.80;0.20;;;;;;;19.14;100.00;99021.17;105023;1258;73789;-50
2023/07/28 08:05:56;;;;;;;0.40;0.20;;;;;;;19.16;100.00;99027.17;105085;1256;67541;-48
2023/07/28 08:08:23;;;;;;;1.00;0.20;;;;;;;19.15;100.00;99027.59;105078;1257;72771;-49
2023/07/28 08:10:50;;;;;;;0.20;0.20;;;;;;;19.18;100.00;99038.10;105025;1257;60550;-49
2023/07/28 08:13:18;;;;;;;0.30;0.20;;;;;;;19.20;100.00;99040.77;104952;1257;60364;-49
2023/07/28 08:15:46;;;;;;;1.60;0.20;;;;;;;19.23;100.00;99039.17;105150;1254;75493;-49
2023/07/28 08:18:13;;;;;;;0.50;0.20;;;;;;;19.31;100.00;99046.67;104827;1254;67581;-48
2023/07/28 08:20:41;;;;;;;0.70;0.20;;;;;;;19.39;100.00;99048.84;109117;1251;71067;-50
2023/07/28 08:23:08;;;;;;;0.30;0.10;;;;;;;19.43;100.00;99049.84;109080;1254;61271;-48
2023/07/28 08:25:35;;;;;;;0.20;0.20;;;;;;;19.48;100.00;99048.30;105866;1251;60463;-47
2023/07/28 08:28:04;;;;;;;0.50;0.20;;;;;;;19.55;100.00;99060.77;104630;1252;72611;-48
2023/07/28 08:30:32;;;;;;;0.80;0.20;;;;;;;19.60;100.00;99059.83;109196;1251;66635;-50
2023/07/28 08:32:59;;;;;;;0.60;0.20;;;;;;;19.65;100.00;99063.74;109172;1254;71420;-49
2023/07/28 08:35:27;;;;;;;0.30;0.20;;;;;;;19.69;100.00;99067.77;109247;1251;60578;-49
2023/07/28 08:37:54;;;;;;;1.20;0.20;;;;;;;19.74;100.00;99063.27;109185;1251;60015;-50
2023/07/28 08:40:24;;;;;;;0.90;0.20;;;;;;;19.80;100.00;99073.45;109147;1254;73738;-49
2023/07/28 08:42:51;;;;;;;0.20;0.20;;;;;;;19.85;100.00;99074.20;109237;1252;67071;-49
2023/07/28 08:45:19;;;;;;;0.50;0.20;;;;;;;19.91;100.00;99080.89;109166;1254;70912;-49
2023/07/28 08:47:46;;;;;;;0.30;0.10;;;;;;;19.95;100.00;99082.48;109151;1253;60690;-48
2023/07/28 08:50:14;;;;;;;0.20;0.20;;;;;;;19.96;100.00;99079.19;109187;1253;61001;-50
2023/07/28 08:52:41;;;;;;;0.40;0.20;;;;;;;19.96;100.00;99090.23;109107;1253;73788;-49
2023/07/28 08:55:09;;;;;;;0.40;0.20;;;;;;;19.98;100.00;99090.25;109252;1254;66811;-48
2023/07/28 08:57:37;;;;;;;0.10;0.10;;;;;;;20.00;100.00;99091.08;109154;1253;71261;-50
2023/07/28 09:00:10;;;;;;;0.30;0.20;;;;;;;20.04;100.00;99091.83;109179;1253;60132;-48
2023/07/28 09:02:37;;;;;;;0.30;0.20;;;;;;;20.08;100.00;99096.69;109097;1253;58782;-49
2023/07/28 09:05:07;;;;;;;0.40;0.20;;;;;;;20.14;100.00;99102.89;105695;1254;74830;-50
2023/07/28 09:07:36;;;;;;;0.30;0.20;;;;;;;20.19;100.00;99102.17;104829;1254;67724;-48
2023/07/28 09:10:04;;;;;;;1.30;0.10;;;;;;;20.21;100.00;99114.17;104881;1258;73087;-49
2023/07/28 09:12:32;;;;;;;0.40;0.20;;;;;;;20.25;100.00;99105.02;105036;1254;60293;-48
2023/07/28 09:15:00;;;;;;;0.30;0.20;;;;;;;20.31;100.00;99102.05;105005;1254;60658;-49
2023/07/28 09:17:27;;;;;;;1.60;0.20;;;;;;;20.37;100.00;99107.13;104942;1257;74726;-50
2023/07/28 09:19:55;;;;;;;0.20;0.20;;;;;;;20.43;100.00;99114.02;104814;1254;67691;-49
2023/07/28 09:22:23;;;;;;;0.20;0.20;;;;;;;20.46;100.00;99108.12;104834;1257;72510;-49
2023/07/28 09:24:51;;;;;;;0.30;0.10;;;;;;;20.47;100.00;99107.26;104815;1257;60439;-47
2023/07/28 09:27:20;;;;;;;0.70;0.20;;;;;;;20.48;100.00;99115.88;105141;1254;60409;-47
2023/07/28 09:29:49;;;;;;;0.20;0.20;;;;;;;20.53;100.00;99109.80;104785;1254;74334;-48
2023/07/28 09:32:28;;;;;;;0.30;0.20;;;;;;;20.57;100.00;99117.55;105478;1254;68111;-49
2023/07/28 09:35:17;;;;;;;2.10;0.20;;;;;;;20.64;100.00;99120.11;104995;1254;72715;-47
2023/07/28 09:37:45;;;;;;;0.30;0.20;;;;;;;20.73;100.00;99133.23;104900;1254;60736;-48
2023/07/28 09:40:14;;;;;;;0.40;0.20;;;;;;;20.79;100.00;99137.95;105321;1257;60960;-49
2023/07/28 09:42:42;;;;;;;0.20;0.10;;;;;;;20.81;100.00;99140.34;105337;1254;74496;-48
2023/07/28 09:45:11;;;;;;;0.90;0.20;;;;;;;20.84;100.00;99148.98;105262;1258;66481;-48
2023/07/28 09:47:58;;;;;;;0.20;0.20;;;;;;;20.89;100.00;99151.42;105239;1254;71430;-48
2023/07/28 09:50:25;;;;;;;0.40;0.20;;;;;;;20.93;100.00;99151.14;105052;1254;60454;-48
2023/07/28 09:52:53;;;;;;;1.30;0.10;;;;;;;20.98;100.00;99147.02;104987;1254;60549;-48
2023/07/28 09:55:20;;;;;;;1.60;0.20;;;;;;;21.03;100.00;99149.88;105492;1257;73789;-48
2023/07/28 09:57:52;;;;;;;1.60;0.20;;;;;;;21.07;100.00;99149.89;105025;1257;66428;-48
2023/07/28 10:00:21;;;;;;;0.30;0.20;;;;;;;21.06;100.00;99143.77;105363;1257;72695;-47
2023/07/28 10:02:48;;;;;;;0.70;0.10;;;;;;;21.07;100.00;99156.46;105244;1257;60456;-49
2023/07/28 10:05:16;;;;;;;1.90;0.20;;;;;;;21.09;100.00;99151.87;104699;1253;60560;-48
2023/07/28 10:07:44;;;;;;;0.20;0.20;;;;;;;21.12;100.00;99157.05;104922;1256;74352;-47
2023/07/28 10:10:14;;;;;;;0.20;0.10;;;;;;;21.17;100.00;99154.36;104936;1254;67909;-47
2023/07/28 10:12:45;;;;;;;0.90;0.20;;;;;;;21.24;100.00;99155.85;105822;1257;72644;-48
2023/07/28 10:15:15;;;;;;;1.60;0.20;;;;;;;21.30;100.00;99158.67;105009;1254;60558;-48
2023/07/28 10:17:44;;;;;;;0.30;0.20;;;;;;;21.34;100.00;99159.20;105393;1254;60490;-48
2023/07/28 10:20:41;;;;;;;0.20;0.20;;;;;;;21.36;100.00;99158.59;105069;1256;74355;-47
2023/07/28 10:23:16;;;;;;;0.20;0.20;;;;;;;21.38;100.00;99162.61;105028;1254;67720;-48
2023/07/28 10:25:44;;;;;;;1.80;0.20;;;;;;;21.40;100.00;99159.46;105239;1257;73109;-48
2023/07/28 10:28:31;;;;;;;0.80;0.10;;;;;;;21.44;100.00;99159.62;104745;1254;61057;-48
2023/07/28 10:31:00;;;;;;;0.70;0.10;;;;;;;21.47;100.00;99161.88;105552;1257;59239;-47
2023/07/28 10:33:29;;;;;;;0.30;0.20;;;;;;;21.50;100.00;99160.52;105019;1254;74452;-48
2023/07/28 10:35:58;;;;;;;0.30;0.20;;;;;;;21.53;100.00;99159.56;105049;1253;67553;-48
2023/07/28 10:38:34;;;;;;;1.10;0.20;;;;;;;21.58;100.00;99162.20;105077;1254;72727;-47
2023/07/28 10:41:11;;;;;;;0.40;0.20;;;;;;;21.62;100.00;99166.38;106801;1254;60718;-48
2023/07/28 10:43:39;;;;;;;0.30;0.20;;;;;;;21.66;100.00;99162.15;104963;1253;60448;-48
2023/07/28 10:46:11;;;;;;;0.70;0.20;;;;;;;21.67;100.00;99163.10;107111;1257;73843;-48
2023/07/28 10:48:43;;;;;;;0.30;0.20;;;;;;;21.67;100.00;99160.77;105480;1256;65341;-47
2023/07/28 10:51:11;;;;;;;2.10;0.20;;;;;;;21.69;100.00;99158.48;106815;1258;71164;-48
2023/07/28 10:53:39;;;;;;;0.30;0.10;;;;;;;21.74;100.00;99161.60;104937;1257;60533;-47
2023/07/28 10:56:08;;;;;;;0.40;0.20;;;;;;;21.81;100.00;99164.21;104991;1257;60476;-48
2023/07/28 10:58:38;;;;;;;0.20;0.20;;;;;;;21.83;100.00;99166.65;104989;1257;73952;-48
2023/07/28 11:01:07;;;;;;;0.30;0.20;;;;;;;21.88;100.00;99165.58;104997;1257;66848;-48
2023/07/28 11:03:34;;;;;;;1.00;0.20;;;;;;;21.93;100.00;99174.09;105026;1254;71208;-47
2023/07/28 11:06:03;;;;;;;0.20;0.20;;;;;;;21.93;100.00;99172.49;105676;1254;60494;-48
2023/07/28 11:08:30;;;;;;;0.20;0.20;;;;;;;21.90;100.00;99175.33;105101;1256;60477;-49
2023/07/28 11:10:57;;;;;;;1.60;0.20;;;;;;;21.84;100.00;99172.39;104982;1253;73000;-48
2023/07/28 11:13:25;;;;;;;0.30;0.20;;;;;;;21.80;100.00;99171.38;104925;1257;67552;-50
2023/07/28 11:16:08;;;;;;;0.90;0.10;;;;;;;21.79;100.00;99175.64;104987;1253;72710;-49
2023/07/28 11:18:35;;;;;;;0.60;0.10;;;;;;;21.88;100.00;99174.41;105093;1254;60567;-50
2023/07/28 11:21:03;;;;;;;0.30;0.20;;;;;;;21.96;100.00;99177.81;104937;1256;60533;-49
2023/07/28 11:23:30;;;;;;;0.20;0.20;;;;;;;22.06;100.00;99183.38;105141;1256;73756;-49